sensor_id;sensor_type;location;lat;lon;timestamp;temperature;humidity
79018;DHT22;68421;44.714;37.756;2023-03-21T00:00:16;19.68;56.41
79018;DHT22;68421;44.714;37.756;2023-03-21T00:01:17;19.67;56.37
79018;DHT22;68421;44.714;37.756;2023-03-21T00:02:18;19.68;56.50
79018;DHT22;68421;44.714;37.756;2023-03-21T00:03:20;19.67;56.50
79018;DHT22;68421;44.714;37.756;2023-03-21T00:04:23;19.68;56.34
79018;DHT22;68421;44.714;37.756;2023-03-21T00:05:24;19.67;56.26
79018;DHT22;68421;44.714;37.756;2023-03-21T00:06:26;19.66;56.23
79018;DHT22;68421;44.714;37.756;2023-03-21T00:07:27;19.66;56.39
79018;DHT22;68421;44.714;37.756;2023-03-21T00:08:28;19.66;56.27
79018;DHT22;68421;44.714;37.756;2023-03-21T00:09:30;19.65;56.25
79018;DHT22;68421;44.714;37.756;2023-03-21T00:10:31;19.66;56.33
79018;DHT22;68421;44.714;37.756;2023-03-21T00:11:32;19.66;56.42
79018;DHT22;68421;44.714;37.756;2023-03-21T00:12:34;19.66;56.26
79018;DHT22;68421;44.714;37.756;2023-03-21T00:13:38;19.67;56.20
79018;DHT22;68421;44.714;37.756;2023-03-21T00:14:42;19.63;56.29
79018;DHT22;68421;44.714;37.756;2023-03-21T00:15:44;19.65;56.36
79018;DHT22;68421;44.714;37.756;2023-03-21T00:16:54;19.65;56.22
79018;DHT22;68421;44.714;37.756;2023-03-21T00:17:56;19.63;56.37
79018;DHT22;68421;44.714;37.756;2023-03-21T00:19:03;19.62;56.37
79018;DHT22;68421;44.714;37.756;2023-03-21T00:20:06;19.65;56.53
79018;DHT22;68421;44.714;37.756;2023-03-21T00:21:16;19.62;56.31
79018;DHT22;68421;44.714;37.756;2023-03-21T00:22:18;19.65;56.34
79018;DHT22;68421;44.714;37.756;2023-03-21T00:23:20;19.65;56.39
79018;DHT22;68421;44.714;37.756;2023-03-21T00:24:22;19.63;56.35
79018;DHT22;68421;44.714;37.756;2023-03-21T00:25:23;19.63;56.43
79018;DHT22;68421;44.714;37.756;2023-03-21T00:26:25;19.62;56.36
79018;DHT22;68421;44.714;37.756;2023-03-21T00:27:26;19.61;56.44
79018;DHT22;68421;44.714;37.756;2023-03-21T00:28:29;19.62;56.59
79018;DHT22;68421;44.714;37.756;2023-03-21T00:29:31;19.63;56.49
79018;DHT22;68421;44.714;37.756;2023-03-21T00:30:32;19.63;56.39
79018;DHT22;68421;44.714;37.756;2023-03-21T00:31:33;19.61;56.59
79018;DHT22;68421;44.714;37.756;2023-03-21T00:32:35;19.63;56.50
79018;DHT22;68421;44.714;37.756;2023-03-21T00:33:36;19.62;56.58
79018;DHT22;68421;44.714;37.756;2023-03-21T00:34:39;19.62;56.51
79018;DHT22;68421;44.714;37.756;2023-03-21T00:35:41;19.63;56.50
79018;DHT22;68421;44.714;37.756;2023-03-21T00:36:47;19.65;56.83
79018;DHT22;68421;44.714;37.756;2023-03-21T00:37:49;19.67;56.55
79018;DHT22;68421;44.714;37.756;2023-03-21T00:38:50;19.69;57.02
79018;DHT22;68421;44.714;37.756;2023-03-21T00:39:52;19.69;56.53
79018;DHT22;68421;44.714;37.756;2023-03-21T00:40:54;19.68;56.48
79018;DHT22;68421;44.714;37.756;2023-03-21T00:41:55;19.68;56.45
79018;DHT22;68421;44.714;37.756;2023-03-21T00:42:59;19.68;56.48
79018;DHT22;68421;44.714;37.756;2023-03-21T00:44:00;19.67;56.42
79018;DHT22;68421;44.714;37.756;2023-03-21T00:45:03;19.68;56.64
79018;DHT22;68421;44.714;37.756;2023-03-21T00:46:10;19.68;56.61
79018;DHT22;68421;44.714;37.756;2023-03-21T00:47:13;19.68;56.62
79018;DHT22;68421;44.714;37.756;2023-03-21T00:48:15;19.68;56.53
79018;DHT22;68421;44.714;37.756;2023-03-21T00:49:17;19.68;56.56
79018;DHT22;68421;44.714;37.756;2023-03-21T00:50:20;19.68;56.61
79018;DHT22;68421;44.714;37.756;2023-03-21T00:51:22;19.67;56.67
79018;DHT22;68421;44.714;37.756;2023-03-21T00:52:27;19.67;56.54
79018;DHT22;68421;44.714;37.756;2023-03-21T00:53:28;19.67;56.56
79018;DHT22;68421;44.714;37.756;2023-03-21T00:54:34;19.67;56.58
79018;DHT22;68421;44.714;37.756;2023-03-21T00:55:35;19.66;56.60
79018;DHT22;68421;44.714;37.756;2023-03-21T00:56:38;19.66;56.61
79018;DHT22;68421;44.714;37.756;2023-03-21T00:57:40;19.67;56.64
79018;DHT22;68421;44.714;37.756;2023-03-21T00:58:41;19.65;56.61
79018;DHT22;68421;44.714;37.756;2023-03-21T00:59:43;19.66;56.59
79018;DHT22;68421;44.714;37.756;2023-03-21T01:00:44;19.66;56.64
79018;DHT22;68421;44.714;37.756;2023-03-21T01:01:49;19.65;56.63
79018;DHT22;68421;44.714;37.756;2023-03-21T01:02:53;19.66;56.64
79018;DHT22;68421;44.714;37.756;2023-03-21T01:03:58;19.66;56.61
79018;DHT22;68421;44.714;37.756;2023-03-21T01:05:10;19.65;56.52
79018;DHT22;68421;44.714;37.756;2023-03-21T01:06:11;19.65;56.63
79018;DHT22;68421;44.714;37.756;2023-03-21T01:07:13;19.65;56.56
79018;DHT22;68421;44.714;37.756;2023-03-21T01:08:16;19.65;56.59
79018;DHT22;68421;44.714;37.756;2023-03-21T01:09:21;19.66;56.61
79018;DHT22;68421;44.714;37.756;2023-03-21T01:10:23;19.66;56.58
79018;DHT22;68421;44.714;37.756;2023-03-21T01:11:26;19.65;56.56
79018;DHT22;68421;44.714;37.756;2023-03-21T01:12:28;19.65;56.58
79018;DHT22;68421;44.714;37.756;2023-03-21T01:13:30;19.65;56.58
79018;DHT22;68421;44.714;37.756;2023-03-21T01:14:31;19.65;56.64
79018;DHT22;68421;44.714;37.756;2023-03-21T01:15:34;19.66;56.59
79018;DHT22;68421;44.714;37.756;2023-03-21T01:16:36;19.67;56.55
79018;DHT22;68421;44.714;37.756;2023-03-21T01:17:37;19.66;56.63
79018;DHT22;68421;44.714;37.756;2023-03-21T01:18:39;19.65;56.63
79018;DHT22;68421;44.714;37.756;2023-03-21T01:19:41;19.65;56.57
79018;DHT22;68421;44.714;37.756;2023-03-21T01:20:43;19.66;56.63
79018;DHT22;68421;44.714;37.756;2023-03-21T01:21:45;19.66;56.62
79018;DHT22;68421;44.714;37.756;2023-03-21T01:22:47;19.65;56.71
79018;DHT22;68421;44.714;37.756;2023-03-21T01:23:48;19.65;56.62
79018;DHT22;68421;44.714;37.756;2023-03-21T01:24:49;19.65;56.68
79018;DHT22;68421;44.714;37.756;2023-03-21T01:25:52;19.66;56.63
79018;DHT22;68421;44.714;37.756;2023-03-21T01:26:54;19.66;56.64
79018;DHT22;68421;44.714;37.756;2023-03-21T01:27:56;19.66;56.54
79018;DHT22;68421;44.714;37.756;2023-03-21T01:28:57;19.66;56.62
79018;DHT22;68421;44.714;37.756;2023-03-21T01:29:58;19.65;56.63
79018;DHT22;68421;44.714;37.756;2023-03-21T01:31:01;19.65;56.63
79018;DHT22;68421;44.714;37.756;2023-03-21T01:32:03;19.65;56.67
79018;DHT22;68421;44.714;37.756;2023-03-21T01:33:05;19.67;56.60
79018;DHT22;68421;44.714;37.756;2023-03-21T01:34:06;19.65;56.64
79018;DHT22;68421;44.714;37.756;2023-03-21T01:35:08;19.65;56.70
79018;DHT22;68421;44.714;37.756;2023-03-21T01:36:21;19.66;56.55
79018;DHT22;68421;44.714;37.756;2023-03-21T01:37:23;19.65;56.63
79018;DHT22;68421;44.714;37.756;2023-03-21T01:38:26;19.65;56.68
79018;DHT22;68421;44.714;37.756;2023-03-21T01:39:28;19.66;56.58
79018;DHT22;68421;44.714;37.756;2023-03-21T01:40:30;19.66;56.63
79018;DHT22;68421;44.714;37.756;2023-03-21T01:41:42;19.65;56.61
79018;DHT22;68421;44.714;37.756;2023-03-21T01:42:50;19.63;56.64
79018;DHT22;68421;44.714;37.756;2023-03-21T01:43:54;19.65;56.58
79018;DHT22;68421;44.714;37.756;2023-03-21T01:45:05;19.65;56.67
79018;DHT22;68421;44.714;37.756;2023-03-21T01:47:53;19.63;56.68
79018;DHT22;68421;44.714;37.756;2023-03-21T01:50:10;19.65;56.67
79018;DHT22;68421;44.714;37.756;2023-03-21T01:50:50;19.65;56.70
79018;DHT22;68421;44.714;37.756;2023-03-21T01:51:58;19.66;56.61
79018;DHT22;68421;44.714;37.756;2023-03-21T01:53:00;19.62;56.65
79018;DHT22;68421;44.714;37.756;2023-03-21T01:54:10;19.63;56.66
79018;DHT22;68421;44.714;37.756;2023-03-21T01:55:13;19.63;56.69
79018;DHT22;68421;44.714;37.756;2023-03-21T01:56:31;19.63;56.65
79018;DHT22;68421;44.714;37.756;2023-03-21T01:57:43;19.62;56.64
79018;DHT22;68421;44.714;37.756;2023-03-21T01:58:48;19.63;56.66
79018;DHT22;68421;44.714;37.756;2023-03-21T02:00:19;19.62;56.66
79018;DHT22;68421;44.714;37.756;2023-03-21T02:01:33;19.63;56.66
79018;DHT22;68421;44.714;37.756;2023-03-21T02:02:42;19.62;56.70
79018;DHT22;68421;44.714;37.756;2023-03-21T02:04:16;19.62;56.62
79018;DHT22;68421;44.714;37.756;2023-03-21T02:06:51;19.62;56.73
79018;DHT22;68421;44.714;37.756;2023-03-21T02:08:21;19.61;56.77
79018;DHT22;68421;44.714;37.756;2023-03-21T02:09:27;19.61;56.76
79018;DHT22;68421;44.714;37.756;2023-03-21T02:10:32;19.62;56.80
79018;DHT22;68421;44.714;37.756;2023-03-21T02:11:36;19.62;56.76
79018;DHT22;68421;44.714;37.756;2023-03-21T02:12:39;19.62;56.81
79018;DHT22;68421;44.714;37.756;2023-03-21T02:13:41;19.62;56.72
79018;DHT22;68421;44.714;37.756;2023-03-21T02:14:48;19.62;56.71
79018;DHT22;68421;44.714;37.756;2023-03-21T02:23:24;19.60;56.74
79018;DHT22;68421;44.714;37.756;2023-03-21T02:24:48;19.62;56.73
79018;DHT22;68421;44.714;37.756;2023-03-21T02:27:23;19.61;56.78
79018;DHT22;68421;44.714;37.756;2023-03-21T02:31:09;19.60;56.77
79018;DHT22;68421;44.714;37.756;2023-03-21T02:37:48;19.61;56.76
79018;DHT22;68421;44.714;37.756;2023-03-21T02:41:49;19.59;56.83
79018;DHT22;68421;44.714;37.756;2023-03-21T02:43:12;19.60;56.86
79018;DHT22;68421;44.714;37.756;2023-03-21T02:45:25;19.59;56.85
79018;DHT22;68421;44.714;37.756;2023-03-21T02:46:59;19.59;56.87
79018;DHT22;68421;44.714;37.756;2023-03-21T02:48:09;19.59;56.93
79018;DHT22;68421;44.714;37.756;2023-03-21T02:50:23;19.59;56.80
79018;DHT22;68421;44.714;37.756;2023-03-21T02:51:28;19.61;56.82
79018;DHT22;68421;44.714;37.756;2023-03-21T02:52:34;19.60;56.90
79018;DHT22;68421;44.714;37.756;2023-03-21T02:53:38;19.60;56.81
79018;DHT22;68421;44.714;37.756;2023-03-21T02:54:42;19.60;56.79
79018;DHT22;68421;44.714;37.756;2023-03-21T02:55:45;19.59;56.82
79018;DHT22;68421;44.714;37.756;2023-03-21T02:56:47;19.59;56.84
79018;DHT22;68421;44.714;37.756;2023-03-21T02:57:52;19.60;56.86
79018;DHT22;68421;44.714;37.756;2023-03-21T02:58:54;19.59;56.86
79018;DHT22;68421;44.714;37.756;2023-03-21T02:59:56;19.59;56.89
79018;DHT22;68421;44.714;37.756;2023-03-21T03:01:04;19.59;56.81
79018;DHT22;68421;44.714;37.756;2023-03-21T03:02:14;19.59;56.79
79018;DHT22;68421;44.714;37.756;2023-03-21T03:03:17;19.60;56.81
79018;DHT22;68421;44.714;37.756;2023-03-21T03:04:24;19.59;56.82
79018;DHT22;68421;44.714;37.756;2023-03-21T03:05:30;19.59;56.87
79018;DHT22;68421;44.714;37.756;2023-03-21T03:09:42;19.60;56.81
79018;DHT22;68421;44.714;37.756;2023-03-21T03:17:34;19.59;56.90
79018;DHT22;68421;44.714;37.756;2023-03-21T03:18:52;19.61;57.29
79018;DHT22;68421;44.714;37.756;2023-03-21T03:20:18;19.61;58.28
79018;DHT22;68421;44.714;37.756;2023-03-21T03:22:43;19.65;59.36
79018;DHT22;68421;44.714;37.756;2023-03-21T03:25:04;19.66;58.59
79018;DHT22;68421;44.714;37.756;2023-03-21T03:26:27;19.68;59.80
79018;DHT22;68421;44.714;37.756;2023-03-21T03:27:34;19.69;59.90
79018;DHT22;68421;44.714;37.756;2023-03-21T03:28:43;19.69;59.54
79018;DHT22;68421;44.714;37.756;2023-03-21T03:29:50;19.71;60.57
79018;DHT22;68421;44.714;37.756;2023-03-21T03:30:57;19.73;60.29
79018;DHT22;68421;44.714;37.756;2023-03-21T03:33:15;19.81;59.61
79018;DHT22;68421;44.714;37.756;2023-03-21T03:34:21;19.84;59.38
79018;DHT22;68421;44.714;37.756;2023-03-21T03:35:24;19.88;58.35
79018;DHT22;68421;44.714;37.756;2023-03-21T03:36:34;19.90;57.80
79018;DHT22;68421;44.714;37.756;2023-03-21T03:37:47;19.91;58.58
79018;DHT22;68421;44.714;37.756;2023-03-21T03:38:50;19.92;58.50
79018;DHT22;68421;44.714;37.756;2023-03-21T03:40:01;19.92;57.96
79018;DHT22;68421;44.714;37.756;2023-03-21T03:41:11;19.92;57.71
79018;DHT22;68421;44.714;37.756;2023-03-21T03:42:28;19.96;58.37
79018;DHT22;68421;44.714;37.756;2023-03-21T03:43:44;19.96;57.30
79018;DHT22;68421;44.714;37.756;2023-03-21T03:44:47;19.96;57.87
79018;DHT22;68421;44.714;37.756;2023-03-21T03:45:54;19.98;57.54
79018;DHT22;68421;44.714;37.756;2023-03-21T03:47:11;19.98;57.42
79018;DHT22;68421;44.714;37.756;2023-03-21T03:48:28;19.96;57.56
79018;DHT22;68421;44.714;37.756;2023-03-21T03:49:42;19.95;57.59
79018;DHT22;68421;44.714;37.756;2023-03-21T03:50:52;19.95;57.64
79018;DHT22;68421;44.714;37.756;2023-03-21T03:52:09;19.95;57.48
79018;DHT22;68421;44.714;37.756;2023-03-21T03:54:23;19.92;57.30
79018;DHT22;68421;44.714;37.756;2023-03-21T03:55:27;19.92;57.35
79018;DHT22;68421;44.714;37.756;2023-03-21T03:56:39;19.94;57.37
79018;DHT22;68421;44.714;37.756;2023-03-21T03:57:40;19.91;57.49
79018;DHT22;68421;44.714;37.756;2023-03-21T03:58:42;19.91;58.17
79018;DHT22;68421;44.714;37.756;2023-03-21T03:59:45;19.96;57.99
79018;DHT22;68421;44.714;37.756;2023-03-21T04:00:59;20.03;57.69
79018;DHT22;68421;44.714;37.756;2023-03-21T04:02:00;20.06;57.58
79018;DHT22;68421;44.714;37.756;2023-03-21T04:03:03;20.11;57.51
79018;DHT22;68421;44.714;37.756;2023-03-21T04:04:07;20.15;57.50
79018;DHT22;68421;44.714;37.756;2023-03-21T04:05:08;20.17;57.56
79018;DHT22;68421;44.714;37.756;2023-03-21T04:06:10;20.21;57.48
79018;DHT22;68421;44.714;37.756;2023-03-21T04:07:12;20.21;57.29
79018;DHT22;68421;44.714;37.756;2023-03-21T04:08:15;20.20;57.16
79018;DHT22;68421;44.714;37.756;2023-03-21T04:09:21;20.21;56.97
79018;DHT22;68421;44.714;37.756;2023-03-21T04:10:23;20.20;56.61
79018;DHT22;68421;44.714;37.756;2023-03-21T04:11:24;20.26;57.58
79018;DHT22;68421;44.714;37.756;2023-03-21T04:12:28;20.26;57.45
79018;DHT22;68421;44.714;37.756;2023-03-21T04:13:52;20.29;56.94
79018;DHT22;68421;44.714;37.756;2023-03-21T04:14:57;20.26;56.43
79018;DHT22;68421;44.714;37.756;2023-03-21T04:15:59;20.27;56.82
79018;DHT22;68421;44.714;37.756;2023-03-21T04:17:01;20.28;56.65
79018;DHT22;68421;44.714;37.756;2023-03-21T04:18:02;20.28;56.84
79018;DHT22;68421;44.714;37.756;2023-03-21T04:19:04;20.26;56.28
79018;DHT22;68421;44.714;37.756;2023-03-21T04:20:06;20.27;56.61
79018;DHT22;68421;44.714;37.756;2023-03-21T04:21:11;20.25;56.55
79018;DHT22;68421;44.714;37.756;2023-03-21T04:22:13;20.22;56.93
79018;DHT22;68421;44.714;37.756;2023-03-21T04:23:18;20.25;56.68
79018;DHT22;68421;44.714;37.756;2023-03-21T04:24:21;20.28;59.37
79018;DHT22;68421;44.714;37.756;2023-03-21T04:25:23;20.29;56.91
79018;DHT22;68421;44.714;37.756;2023-03-21T04:26:30;20.29;58.99
79018;DHT22;68421;44.714;37.756;2023-03-21T04:27:56;20.28;58.13
79018;DHT22;68421;44.714;37.756;2023-03-21T04:29:11;20.33;57.75
79018;DHT22;68421;44.714;37.756;2023-03-21T04:30:35;20.32;57.18
79018;DHT22;68421;44.714;37.756;2023-03-21T04:31:46;20.30;56.85
79018;DHT22;68421;44.714;37.756;2023-03-21T04:32:51;20.28;56.81
79018;DHT22;68421;44.714;37.756;2023-03-21T04:33:59;20.27;56.93
79018;DHT22;68421;44.714;37.756;2023-03-21T04:35:01;20.26;56.93
79018;DHT22;68421;44.714;37.756;2023-03-21T04:36:06;20.25;56.93
79018;DHT22;68421;44.714;37.756;2023-03-21T04:37:09;20.24;56.88
79018;DHT22;68421;44.714;37.756;2023-03-21T04:38:15;20.24;56.84
79018;DHT22;68421;44.714;37.756;2023-03-21T04:39:16;20.22;56.85
79018;DHT22;68421;44.714;37.756;2023-03-21T04:40:21;20.21;56.87
79018;DHT22;68421;44.714;37.756;2023-03-21T04:41:22;20.20;56.88
79018;DHT22;68421;44.714;37.756;2023-03-21T04:42:24;20.20;56.85
79018;DHT22;68421;44.714;37.756;2023-03-21T04:43:26;20.19;56.86
79018;DHT22;68421;44.714;37.756;2023-03-21T04:44:28;20.20;56.86
79018;DHT22;68421;44.714;37.756;2023-03-21T04:45:29;20.18;56.84
79018;DHT22;68421;44.714;37.756;2023-03-21T04:46:31;20.18;56.86
79018;DHT22;68421;44.714;37.756;2023-03-21T04:47:33;20.18;56.81
79018;DHT22;68421;44.714;37.756;2023-03-21T04:48:35;20.17;56.84
79018;DHT22;68421;44.714;37.756;2023-03-21T04:49:36;20.17;56.81
79018;DHT22;68421;44.714;37.756;2023-03-21T04:50:38;20.17;56.77
79018;DHT22;68421;44.714;37.756;2023-03-21T04:51:39;20.17;56.72
79018;DHT22;68421;44.714;37.756;2023-03-21T04:52:45;20.17;56.72
79018;DHT22;68421;44.714;37.756;2023-03-21T04:53:47;20.16;56.68
79018;DHT22;68421;44.714;37.756;2023-03-21T04:54:49;20.15;56.71
79018;DHT22;68421;44.714;37.756;2023-03-21T04:55:52;20.16;56.66
79018;DHT22;68421;44.714;37.756;2023-03-21T04:56:53;20.15;56.71
79018;DHT22;68421;44.714;37.756;2023-03-21T04:57:55;20.15;56.68
79018;DHT22;68421;44.714;37.756;2023-03-21T04:58:59;20.16;56.67
79018;DHT22;68421;44.714;37.756;2023-03-21T05:00:03;20.16;56.66
79018;DHT22;68421;44.714;37.756;2023-03-21T05:01:09;20.16;56.61
79018;DHT22;68421;44.714;37.756;2023-03-21T05:02:11;20.16;56.61
79018;DHT22;68421;44.714;37.756;2023-03-21T05:03:13;20.16;56.57
79018;DHT22;68421;44.714;37.756;2023-03-21T05:04:19;20.16;56.54
79018;DHT22;68421;44.714;37.756;2023-03-21T05:05:21;20.17;56.58
79018;DHT22;68421;44.714;37.756;2023-03-21T05:06:22;20.16;56.55
79018;DHT22;68421;44.714;37.756;2023-03-21T05:07:24;20.16;56.55
79018;DHT22;68421;44.714;37.756;2023-03-21T05:08:27;20.16;56.53
79018;DHT22;68421;44.714;37.756;2023-03-21T05:09:28;20.15;56.52
79018;DHT22;68421;44.714;37.756;2023-03-21T05:10:30;20.16;56.55
79018;DHT22;68421;44.714;37.756;2023-03-21T05:11:33;20.17;56.52
79018;DHT22;68421;44.714;37.756;2023-03-21T05:12:38;20.16;56.52
79018;DHT22;68421;44.714;37.756;2023-03-21T05:13:40;20.16;56.51
79018;DHT22;68421;44.714;37.756;2023-03-21T05:14:41;20.15;56.52
79018;DHT22;68421;44.714;37.756;2023-03-21T05:15:43;20.16;56.48
79018;DHT22;68421;44.714;37.756;2023-03-21T05:16:45;20.16;56.51
79018;DHT22;68421;44.714;37.756;2023-03-21T05:17:54;20.17;56.48
79018;DHT22;68421;44.714;37.756;2023-03-21T05:18:59;20.17;56.42
79018;DHT22;68421;44.714;37.756;2023-03-21T05:20:06;20.18;56.43
79018;DHT22;68421;44.714;37.756;2023-03-21T05:21:09;20.17;56.45
79018;DHT22;68421;44.714;37.756;2023-03-21T05:22:12;20.17;56.45
79018;DHT22;68421;44.714;37.756;2023-03-21T05:23:14;20.17;56.45
79018;DHT22;68421;44.714;37.756;2023-03-21T05:24:20;20.16;56.45
79018;DHT22;68421;44.714;37.756;2023-03-21T05:25:22;20.17;56.42
79018;DHT22;68421;44.714;37.756;2023-03-21T05:26:51;20.17;56.41
79018;DHT22;68421;44.714;37.756;2023-03-21T05:27:56;20.17;56.42
79018;DHT22;68421;44.714;37.756;2023-03-21T05:29:01;20.15;56.43
79018;DHT22;68421;44.714;37.756;2023-03-21T05:30:12;20.16;56.41
79018;DHT22;68421;44.714;37.756;2023-03-21T05:31:15;20.18;56.37
79018;DHT22;68421;44.714;37.756;2023-03-21T05:32:17;20.16;56.36
79018;DHT22;68421;44.714;37.756;2023-03-21T05:33:19;20.19;56.36
79018;DHT22;68421;44.714;37.756;2023-03-21T05:34:21;20.18;56.36
79018;DHT22;68421;44.714;37.756;2023-03-21T05:35:23;20.18;56.38
79018;DHT22;68421;44.714;37.756;2023-03-21T05:36:24;20.19;56.37
79018;DHT22;68421;44.714;37.756;2023-03-21T05:37:26;20.18;56.35
79018;DHT22;68421;44.714;37.756;2023-03-21T05:38:29;20.17;56.31
79018;DHT22;68421;44.714;37.756;2023-03-21T05:39:31;20.20;56.31
79018;DHT22;68421;44.714;37.756;2023-03-21T05:40:37;20.19;56.32
79018;DHT22;68421;44.714;37.756;2023-03-21T05:41:39;20.18;56.36
79018;DHT22;68421;44.714;37.756;2023-03-21T05:42:40;20.19;56.32
79018;DHT22;68421;44.714;37.756;2023-03-21T05:43:55;20.19;56.33
79018;DHT22;68421;44.714;37.756;2023-03-21T05:44:56;20.18;56.34
79018;DHT22;68421;44.714;37.756;2023-03-21T05:46:05;20.19;56.32
79018;DHT22;68421;44.714;37.756;2023-03-21T05:47:07;20.18;56.31
79018;DHT22;68421;44.714;37.756;2023-03-21T05:48:18;20.18;56.29
79018;DHT22;68421;44.714;37.756;2023-03-21T05:49:38;20.19;56.29
79018;DHT22;68421;44.714;37.756;2023-03-21T05:50:40;20.19;56.28
79018;DHT22;68421;44.714;37.756;2023-03-21T05:51:50;20.20;56.24
79018;DHT22;68421;44.714;37.756;2023-03-21T05:52:52;20.20;56.26
79018;DHT22;68421;44.714;37.756;2023-03-21T05:53:53;20.19;56.26
79018;DHT22;68421;44.714;37.756;2023-03-21T05:54:55;20.20;56.26
79018;DHT22;68421;44.714;37.756;2023-03-21T05:55:58;20.20;56.28
79018;DHT22;68421;44.714;37.756;2023-03-21T05:57:18;20.20;56.27
79018;DHT22;68421;44.714;37.756;2023-03-21T05:58:34;20.20;56.26
79018;DHT22;68421;44.714;37.756;2023-03-21T05:59:35;20.19;56.23
79018;DHT22;68421;44.714;37.756;2023-03-21T06:00:37;20.20;56.25
79018;DHT22;68421;44.714;37.756;2023-03-21T06:02:02;20.20;56.25
79018;DHT22;68421;44.714;37.756;2023-03-21T06:03:03;20.19;56.22
79018;DHT22;68421;44.714;37.756;2023-03-21T06:04:29;20.20;56.23
79018;DHT22;68421;44.714;37.756;2023-03-21T06:05:31;20.19;56.22
79018;DHT22;68421;44.714;37.756;2023-03-21T06:06:32;20.21;56.23
79018;DHT22;68421;44.714;37.756;2023-03-21T06:07:35;20.20;56.20
79018;DHT22;68421;44.714;37.756;2023-03-21T06:08:37;20.20;56.17
79018;DHT22;68421;44.714;37.756;2023-03-21T06:09:39;20.21;56.18
79018;DHT22;68421;44.714;37.756;2023-03-21T06:10:42;20.24;56.19
79018;DHT22;68421;44.714;37.756;2023-03-21T06:11:46;20.21;56.19
79018;DHT22;68421;44.714;37.756;2023-03-21T06:12:48;20.20;56.17
79018;DHT22;68421;44.714;37.756;2023-03-21T06:14:02;20.20;56.19
79018;DHT22;68421;44.714;37.756;2023-03-21T06:15:05;20.21;56.16
79018;DHT22;68421;44.714;37.756;2023-03-21T06:16:13;20.21;56.16
79018;DHT22;68421;44.714;37.756;2023-03-21T06:17:14;20.21;56.16
79018;DHT22;68421;44.714;37.756;2023-03-21T06:18:30;20.21;56.15
79018;DHT22;68421;44.714;37.756;2023-03-21T06:20:01;20.21;56.13
79018;DHT22;68421;44.714;37.756;2023-03-21T06:21:07;20.22;56.11
79018;DHT22;68421;44.714;37.756;2023-03-21T06:22:08;20.22;56.14
79018;DHT22;68421;44.714;37.756;2023-03-21T06:23:13;20.22;56.12
79018;DHT22;68421;44.714;37.756;2023-03-21T06:24:16;20.24;56.11
79018;DHT22;68421;44.714;37.756;2023-03-21T06:25:18;20.22;56.13
79018;DHT22;68421;44.714;37.756;2023-03-21T06:26:19;20.24;56.13
79018;DHT22;68421;44.714;37.756;2023-03-21T06:27:23;20.24;56.10
79018;DHT22;68421;44.714;37.756;2023-03-21T06:28:29;20.24;56.10
79018;DHT22;68421;44.714;37.756;2023-03-21T06:29:31;20.21;56.11
79018;DHT22;68421;44.714;37.756;2023-03-21T06:30:32;20.22;56.14
79018;DHT22;68421;44.714;37.756;2023-03-21T06:31:47;20.22;56.13
79018;DHT22;68421;44.714;37.756;2023-03-21T06:32:49;20.24;56.11
79018;DHT22;68421;44.714;37.756;2023-03-21T06:33:52;20.25;56.08
79018;DHT22;68421;44.714;37.756;2023-03-21T06:34:53;20.24;56.10
79018;DHT22;68421;44.714;37.756;2023-03-21T06:35:57;20.24;56.07
79018;DHT22;68421;44.714;37.756;2023-03-21T06:36:59;20.24;56.11
79018;DHT22;68421;44.714;37.756;2023-03-21T06:38:05;20.25;56.07
79018;DHT22;68421;44.714;37.756;2023-03-21T06:39:08;20.24;56.07
79018;DHT22;68421;44.714;37.756;2023-03-21T06:40:13;20.25;56.04
79018;DHT22;68421;44.714;37.756;2023-03-21T06:41:15;20.27;56.06
79018;DHT22;68421;44.714;37.756;2023-03-21T06:42:24;20.25;56.03
79018;DHT22;68421;44.714;37.756;2023-03-21T06:43:32;20.25;56.06
79018;DHT22;68421;44.714;37.756;2023-03-21T06:44:37;20.25;56.07
79018;DHT22;68421;44.714;37.756;2023-03-21T06:45:42;20.24;56.11
79018;DHT22;68421;44.714;37.756;2023-03-21T06:46:45;20.25;56.07
79018;DHT22;68421;44.714;37.756;2023-03-21T06:47:50;20.25;56.07
79018;DHT22;68421;44.714;37.756;2023-03-21T06:49:05;20.24;56.08
79018;DHT22;68421;44.714;37.756;2023-03-21T06:50:09;20.24;56.08
79018;DHT22;68421;44.714;37.756;2023-03-21T06:51:15;20.25;56.03
79018;DHT22;68421;44.714;37.756;2023-03-21T06:52:30;20.25;56.01
79018;DHT22;68421;44.714;37.756;2023-03-21T06:53:32;20.26;55.97
79018;DHT22;68421;44.714;37.756;2023-03-21T06:54:42;20.26;55.99
79018;DHT22;68421;44.714;37.756;2023-03-21T06:55:50;20.26;56.03
79018;DHT22;68421;44.714;37.756;2023-03-21T06:56:51;20.26;56.03
79018;DHT22;68421;44.714;37.756;2023-03-21T06:58:00;20.26;56.01
79018;DHT22;68421;44.714;37.756;2023-03-21T06:59:02;20.26;56.00
79018;DHT22;68421;44.714;37.756;2023-03-21T07:00:30;20.26;56.00
79018;DHT22;68421;44.714;37.756;2023-03-21T07:01:32;20.26;55.99
79018;DHT22;68421;44.714;37.756;2023-03-21T07:02:38;20.26;56.03
79018;DHT22;68421;44.714;37.756;2023-03-21T07:03:45;20.26;56.03
79018;DHT22;68421;44.714;37.756;2023-03-21T07:04:47;20.26;56.02
79018;DHT22;68421;44.714;37.756;2023-03-21T07:05:54;20.27;56.01
79018;DHT22;68421;44.714;37.756;2023-03-21T07:06:57;20.26;56.01
79018;DHT22;68421;44.714;37.756;2023-03-21T07:07:58;20.26;56.03
79018;DHT22;68421;44.714;37.756;2023-03-21T07:09:03;20.26;56.02
79018;DHT22;68421;44.714;37.756;2023-03-21T07:10:08;20.25;56.01
79018;DHT22;68421;44.714;37.756;2023-03-21T07:11:19;20.26;56.03
79018;DHT22;68421;44.714;37.756;2023-03-21T07:12:22;20.26;56.02
79018;DHT22;68421;44.714;37.756;2023-03-21T07:13:37;20.25;56.05
79018;DHT22;68421;44.714;37.756;2023-03-21T07:14:39;20.26;56.03
79018;DHT22;68421;44.714;37.756;2023-03-21T07:15:40;20.27;56.02
79018;DHT22;68421;44.714;37.756;2023-03-21T07:16:42;20.27;56.02
79018;DHT22;68421;44.714;37.756;2023-03-21T07:17:43;20.27;56.03
79018;DHT22;68421;44.714;37.756;2023-03-21T07:18:44;20.26;56.03
79018;DHT22;68421;44.714;37.756;2023-03-21T07:19:46;20.26;56.04
79018;DHT22;68421;44.714;37.756;2023-03-21T07:20:49;20.27;56.04
79018;DHT22;68421;44.714;37.756;2023-03-21T07:21:51;20.26;56.03
79018;DHT22;68421;44.714;37.756;2023-03-21T07:22:53;20.25;56.04
79018;DHT22;68421;44.714;37.756;2023-03-21T07:23:54;20.27;56.01
79018;DHT22;68421;44.714;37.756;2023-03-21T07:24:56;20.28;56.00
79018;DHT22;68421;44.714;37.756;2023-03-21T07:25:57;20.26;56.01
79018;DHT22;68421;44.714;37.756;2023-03-21T07:26:58;20.27;56.00